Station Historical Data
 
Daily Summary for September 20, 2017 Units:  English    Metric   Both
« Previous Day
Next Day »
Daily Weekly Monthly Yearly Custom
  Current: High: Low: Average:
Temperature: 76.5 °F 76.5 °F 66.1 °F 68.9 °F
Dew Point: 68.0 °F 69.2 °F 63.7 °F 65.8 °F
Humidity: 75% 93% 75% 90%
Wind Speed: 2.0mph 5.0mph 2.0mph 3.5mph
Wind Gust: 2.0mph 5.0mph - -
WindWest - - WNW
Pressure: 30.07 in 30.07 in 29.98 in -
Precipitation: 0.00 in      
Historical Graphs
 
 
Tabular Data for September 20, 2017
Time Temperature Dew Point Pressure Wind Wind Speed Wind Gust Humidity Rainfall Rate (Hourly) Conditions
00:00 70.7 °F 66.6 °F 29.98 in WSW 3.0 mph 3.0 mph 87% 0.00 in OVC
00:05 70.5 °F 66.5 °F 29.98 in WSW 3.0 mph 3.0 mph 87% 0.00 in OVC
00:10 70.3 °F 66.2 °F 29.98 in WSW 3.0 mph 3.0 mph 87% 0.00 in OVC
00:15 70.1 °F 66.4 °F 29.98 in West 5.0 mph 5.0 mph 88% 0.00 in CLR
00:20 69.9 °F 66.2 °F 29.98 in West 5.0 mph 5.0 mph 88% 0.00 in CLR
00:25 69.8 °F 66.1 °F 29.98 in West 5.0 mph 5.0 mph 88% 0.00 in CLR
00:30 69.7 °F 66.3 °F 29.98 in West 5.0 mph 5.0 mph 89% 0.00 in CLR
00:35 69.7 °F 66.3 °F 29.98 in West 5.0 mph 5.0 mph 89% 0.00 in CLR
00:40 69.9 °F 66.5 °F 29.98 in West 5.0 mph 5.0 mph 89% 0.00 in CLR
00:45 69.9 °F 66.5 °F 29.98 in West 5.0 mph 5.0 mph 89% 0.00 in CLR
00:50 69.9 °F 66.5 °F 29.99 in West 5.0 mph 5.0 mph 89% 0.00 in CLR
00:55 69.9 °F 66.5 °F 29.99 in West 5.0 mph 5.0 mph 89% 0.00 in CLR
01:00 69.9 °F 66.5 °F 29.99 in West 5.0 mph 5.0 mph 89% 0.00 in CLR
01:05 70.1 °F 66.7 °F 29.99 in West 5.0 mph 5.0 mph 89% 0.00 in CLR
01:10 70.4 °F 66.7 °F 30.00 in West 5.0 mph 5.0 mph 88% 0.00 in CLR
01:15 70.6 °F 66.5 °F 30.00 in West 5.0 mph 5.0 mph 87% 0.00 in CLR
01:20 70.4 °F 66.3 °F 30.00 in West 5.0 mph 5.0 mph 87% 0.00 in CLR
01:25 70.3 °F 66.6 °F 30.00 in West 5.0 mph 5.0 mph 88% 0.00 in CLR
01:30 70.3 °F 66.6 °F 30.00 in West 5.0 mph 5.0 mph 88% 0.00 in CLR
01:35 70.4 °F 66.7 °F 30.00 in West 5.0 mph 5.0 mph 88% 0.00 in CLR
01:40 70.3 °F 66.6 °F 30.00 in West 5.0 mph 5.0 mph 88% 0.00 in CLR
01:45 70.3 °F 66.6 °F 30.00 in West 5.0 mph 5.0 mph 88% 0.00 in CLR
01:50 70.3 °F 66.5 °F 30.00 in West 5.0 mph 5.0 mph 88% 0.00 in CLR
01:55 70.2 °F 66.8 °F 30.00 in West 5.0 mph 5.0 mph 89% 0.00 in CLR
02:00 70.0 °F 66.6 °F 30.00 in West 5.0 mph 5.0 mph 89% 0.00 in CLR
02:05 69.9 °F 66.5 °F 30.00 in West 5.0 mph 5.0 mph 89% 0.00 in CLR
02:10 69.8 °F 66.4 °F 30.00 in West 5.0 mph 5.0 mph 89% 0.00 in CLR
02:15 69.7 °F 66.6 °F 30.00 in WNW 5.0 mph 5.0 mph 90% 0.00 in CLR
02:20 69.7 °F 66.6 °F 30.00 in WNW 5.0 mph 5.0 mph 90% 0.00 in CLR
02:30 69.7 °F 66.6 °F 30.00 in WNW 5.0 mph 5.0 mph 90% 0.00 in CLR
02:40 69.8 °F 66.7 °F 30.00 in WNW 5.0 mph 5.0 mph 90% 0.00 in CLR
02:45 69.9 °F 66.8 °F 30.00 in WNW 5.0 mph 5.0 mph 90% 0.00 in CLR
02:50 69.8 °F 66.8 °F 30.00 in WNW 5.0 mph 5.0 mph 90% 0.00 in CLR
02:55 69.8 °F 66.7 °F 30.00 in WNW 5.0 mph 5.0 mph 90% 0.00 in CLR
03:00 69.8 °F 66.7 °F 29.99 in WNW 5.0 mph 5.0 mph 90% 0.00 in CLR
03:05 69.8 °F 66.7 °F 29.99 in WNW 5.0 mph 5.0 mph 90% 0.00 in CLR
03:10 69.7 °F 66.6 °F 29.99 in WNW 5.0 mph 5.0 mph 90% 0.00 in CLR
03:15 69.7 °F 66.6 °F 29.99 in NW 3.0 mph 5.0 mph 90% 0.00 in CLR
03:20 69.7 °F 66.6 °F 29.99 in NNW 3.0 mph 3.0 mph 90% 0.00 in CLR
03:25 69.6 °F 66.5 °F 29.99 in NNW 3.0 mph 3.0 mph 90% 0.00 in CLR
03:30 69.4 °F 66.3 °F 29.99 in NNW 3.0 mph 3.0 mph 90% 0.00 in CLR
03:35 69.2 °F 66.1 °F 29.99 in NNW 3.0 mph 3.0 mph 90% 0.00 in CLR
03:40 69.0 °F 65.9 °F 29.99 in NNW 3.0 mph 3.0 mph 90% 0.00 in CLR
03:45 68.9 °F 65.8 °F 29.99 in NNW 3.0 mph 3.0 mph 90% 0.00 in CLR
03:50 68.7 °F 65.7 °F 29.99 in NNW 3.0 mph 3.0 mph 90% 0.00 in CLR
03:55 68.6 °F 65.9 °F 29.99 in NNW 3.0 mph 3.0 mph 91% 0.00 in CLR
04:00 68.5 °F 65.8 °F 29.99 in NNW 3.0 mph 3.0 mph 91% 0.00 in CLR
04:05 68.4 °F 65.7 °F 29.99 in NNW 3.0 mph 3.0 mph 91% 0.00 in CLR
04:10 68.3 °F 65.6 °F 29.99 in NNW 3.0 mph 3.0 mph 91% 0.00 in CLR
04:15 68.2 °F 65.5 °F 29.99 in NNW 3.0 mph 3.0 mph 91% 0.00 in CLR
04:20 68.1 °F 65.4 °F 29.99 in NNW 3.0 mph 3.0 mph 91% 0.00 in CLR
04:25 68.1 °F 65.4 °F 29.99 in NNW 3.0 mph 3.0 mph 91% 0.00 in CLR
04:30 68.0 °F 65.3 °F 29.99 in NNW 3.0 mph 3.0 mph 91% 0.00 in CLR
04:40 67.9 °F 65.2 °F 29.99 in NNW 3.0 mph 3.0 mph 91% 0.00 in CLR
04:45 67.8 °F 65.4 °F 29.99 in NNW 3.0 mph 3.0 mph 92% 0.00 in CLR
04:50 67.7 °F 65.3 °F 29.99 in NNW 3.0 mph 3.0 mph 92% 0.00 in CLR
04:55 67.6 °F 65.2 °F 29.99 in NNW 3.0 mph 3.0 mph 92% 0.00 in CLR
05:00 67.5 °F 65.1 °F 29.99 in NNW 3.0 mph 3.0 mph 92% 0.00 in CLR
05:05 67.4 °F 65.0 °F 29.99 in NNW 3.0 mph 3.0 mph 92% 0.00 in CLR
05:10 67.3 °F 64.9 °F 29.99 in NNW 3.0 mph 3.0 mph 92% 0.00 in CLR
05:15 67.3 °F 64.9 °F 29.99 in NNW 3.0 mph 3.0 mph 92% 0.00 in CLR
05:20 67.2 °F 64.8 °F 29.98 in NNW 3.0 mph 3.0 mph 92% 0.00 in CLR
05:25 67.2 °F 64.8 °F 29.98 in NNW 3.0 mph 3.0 mph 92% 0.00 in CLR
05:30 67.1 °F 64.7 °F 29.99 in NNW 3.0 mph 3.0 mph 92% 0.00 in CLR
05:35 67.1 °F 64.7 °F 29.99 in NNW 3.0 mph 3.0 mph 92% 0.00 in CLR
05:40 67.1 °F 64.7 °F 29.99 in NNW 3.0 mph 3.0 mph 92% 0.00 in CLR
05:45 67.1 °F 64.7 °F 29.99 in NNW 3.0 mph 3.0 mph 92% 0.00 in CLR
05:50 66.9 °F 64.5 °F 29.99 in NNW 3.0 mph 3.0 mph 92% 0.00 in CLR
05:55 66.8 °F 64.4 °F 29.99 in NNW 3.0 mph 3.0 mph 92% 0.00 in CLR
06:00 66.7 °F 64.3 °F 29.99 in NNW 3.0 mph 3.0 mph 92% 0.00 in CLR
06:05 66.6 °F 64.2 °F 30.00 in NNW 3.0 mph 3.0 mph 92% 0.00 in CLR
06:10 66.6 °F 64.2 °F 30.00 in NNW 3.0 mph 3.0 mph 92% 0.00 in CLR
06:15 66.6 °F 64.2 °F 30.00 in NNW 3.0 mph 3.0 mph 92% 0.00 in CLR
06:20 66.7 °F 64.3 °F 30.00 in NNW 3.0 mph 3.0 mph 92% 0.00 in CLR
06:25 66.7 °F 64.3 °F 30.00 in NNW 3.0 mph 3.0 mph 92% 0.00 in CLR
06:30 66.6 °F 64.2 °F 30.00 in NNW 3.0 mph 3.0 mph 92% 0.00 in CLR
06:35 66.5 °F 64.1 °F 30.01 in NNW 3.0 mph 3.0 mph 92% 0.00 in CLR
06:40 66.4 °F 64.0 °F 30.01 in NNW 3.0 mph 3.0 mph 92% 0.00 in CLR
06:45 66.5 °F 64.1 °F 30.01 in NNW 3.0 mph 3.0 mph 92% 0.00 in CLR
06:50 67.1 °F 65.0 °F 30.01 in NNW 3.0 mph 3.0 mph 93% 0.00 in CLR
06:55 66.9 °F 64.5 °F 30.01 in NNW 3.0 mph 3.0 mph 92% 0.00 in CLR
07:00 66.5 °F 64.1 °F 30.02 in NNW 3.0 mph 3.0 mph 92% 0.00 in CLR
07:05 66.3 °F 63.9 °F 30.02 in NNW 3.0 mph 3.0 mph 92% 0.00 in CLR
07:10 66.2 °F 63.8 °F 30.02 in NNW 3.0 mph 3.0 mph 92% 0.00 in CLR
07:15 66.1 °F 63.7 °F 30.02 in NNW 3.0 mph 3.0 mph 92% 0.00 in CLR
07:20 66.1 °F 63.7 °F 30.03 in NNW 3.0 mph 3.0 mph 92% 0.00 in CLR
07:30 66.2 °F 64.1 °F 30.03 in NNW 3.0 mph 3.0 mph 93% 0.00 in CLR
07:40 66.2 °F 64.1 °F 30.03 in NNW 3.0 mph 3.0 mph 93% 0.00 in CLR
07:45 66.3 °F 64.2 °F 30.03 in NNW 3.0 mph 3.0 mph 93% 0.00 in CLR
07:50 66.3 °F 64.3 °F 30.04 in NNW 3.0 mph 3.0 mph 93% 0.00 in CLR
07:55 66.4 °F 64.3 °F 30.04 in NNW 3.0 mph 3.0 mph 93% 0.00 in CLR
08:00 66.5 °F 64.4 °F 30.04 in NNW 3.0 mph 3.0 mph 93% 0.00 in CLR
08:05 66.5 °F 64.4 °F 30.04 in NNW 3.0 mph 3.0 mph 93% 0.00 in CLR
08:10 66.5 °F 64.4 °F 30.04 in NNW 3.0 mph 3.0 mph 93% 0.00 in CLR
08:15 66.6 °F 64.5 °F 30.04 in WNW 3.0 mph 3.0 mph 93% 0.00 in FEW
08:20 66.6 °F 64.5 °F 30.04 in West 3.0 mph 3.0 mph 93% 0.00 in FEW
08:25 66.7 °F 64.6 °F 30.04 in West 3.0 mph 3.0 mph 93% 0.00 in FEW
08:30 66.8 °F 64.7 °F 30.04 in West 3.0 mph 3.0 mph 93% 0.00 in FEW
08:40 67.1 °F 65.0 °F 30.04 in West 3.0 mph 3.0 mph 93% 0.00 in FEW
08:45 67.3 °F 65.2 °F 30.04 in West 3.0 mph 3.0 mph 93% 0.00 in FEW
08:50 67.5 °F 65.4 °F 30.05 in West 3.0 mph 3.0 mph 93% 0.00 in FEW
08:55 67.6 °F 65.5 °F 30.05 in West 3.0 mph 3.0 mph 93% 0.00 in FEW
09:00 67.8 °F 65.7 °F 30.05 in West 3.0 mph 3.0 mph 93% 0.00 in FEW
09:05 68.1 °F 66.0 °F 30.05 in West 3.0 mph 3.0 mph 93% 0.00 in FEW
09:10 68.4 °F 66.3 °F 30.05 in West 3.0 mph 3.0 mph 93% 0.00 in FEW
09:15 68.7 °F 66.6 °F 30.05 in West 3.0 mph 3.0 mph 93% 0.00 in CLR
09:20 69.2 °F 67.1 °F 30.05 in West 3.0 mph 3.0 mph 93% 0.00 in CLR
09:25 69.6 °F 67.5 °F 30.05 in West 3.0 mph 3.0 mph 93% 0.00 in CLR
09:30 70.1 °F 67.7 °F 30.05 in West 3.0 mph 3.0 mph 92% 0.00 in CLR
09:40 71.4 °F 68.3 °F 30.06 in West 3.0 mph 3.0 mph 90% 0.00 in CLR
09:45 71.8 °F 68.1 °F 30.06 in West 3.0 mph 3.0 mph 88% 0.00 in CLR
09:50 72.4 °F 68.3 °F 30.06 in West 3.0 mph 3.0 mph 87% 0.00 in CLR
09:55 73.0 °F 68.3 °F 30.06 in West 3.0 mph 3.0 mph 85% 0.00 in CLR
10:00 73.7 °F 68.9 °F 30.06 in West 3.0 mph 3.0 mph 85% 0.00 in CLR
10:05 74.2 °F 68.7 °F 30.06 in West 3.0 mph 3.0 mph 83% 0.00 in CLR
10:10 74.7 °F 69.2 °F 30.06 in West 3.0 mph 3.0 mph 83% 0.00 in CLR
10:15 75.3 °F 69.0 °F 30.06 in West 2.0 mph 3.0 mph 81% 0.00 in CLR
10:20 75.7 °F 68.4 °F 30.07 in West 2.0 mph 2.0 mph 78% 0.00 in CLR
10:25 76.2 °F 69.2 °F 30.07 in West 2.0 mph 2.0 mph 79% 0.00 in CLR
10:30 76.5 °F 68.0 °F 30.07 in West 2.0 mph 2.0 mph 75% 0.00 in CLR
Piedmont Bend
Compliments of Weather Underground - 2 mb